createdAt,value
2022-12-06T00:00:12.791Z,5.63
2022-12-06T00:02:40.441Z,5.51
2022-12-06T00:05:08.957Z,5.58
2022-12-06T00:07:36.620Z,5.63
2022-12-06T00:10:04.840Z,5.61
2022-12-06T00:12:32.574Z,5.51
2022-12-06T00:15:01.233Z,5.52
2022-12-06T00:17:30.170Z,5.45
2022-12-06T00:19:58.225Z,5.53
2022-12-06T00:22:25.930Z,5.34
2022-12-06T00:24:53.541Z,5.18
2022-12-06T00:27:21.150Z,5.14
2022-12-06T00:29:50.109Z,5.01
2022-12-06T00:32:19.680Z,5.09
2022-12-06T00:34:48.955Z,4.88
2022-12-06T00:37:17.586Z,5.01
2022-12-06T00:39:45.180Z,5.11
2022-12-06T00:42:12.727Z,5.24
2022-12-06T00:44:40.272Z,5.51
2022-12-06T00:47:07.923Z,5.62
2022-12-06T00:49:36.566Z,5.17
2022-12-06T00:52:05.854Z,5.20
2022-12-06T00:54:33.416Z,5.00
2022-12-06T00:57:00.964Z,5.08
2022-12-06T00:59:29.689Z,5.31
2022-12-06T01:01:57.489Z,5.24
2022-12-06T01:04:25.061Z,5.02
2022-12-06T01:06:52.820Z,4.95
2022-12-06T01:09:21.733Z,5.03
2022-12-06T01:11:49.603Z,4.79
2022-12-06T01:14:17.207Z,4.75
2022-12-06T01:16:44.844Z,4.78
2022-12-06T01:19:13.480Z,4.95
2022-12-06T01:21:41.025Z,4.94
2022-12-06T01:24:08.915Z,5.07
2022-12-06T01:26:37.908Z,4.84
2022-12-06T01:29:05.964Z,4.96
2022-12-06T01:31:38.738Z,5.22
2022-12-06T01:34:07.966Z,5.37
2022-12-06T01:36:35.616Z,5.14
2022-12-06T01:39:07.122Z,4.87
2022-12-06T01:41:34.947Z,4.96
2022-12-06T01:44:04.994Z,4.86
2022-12-06T01:46:35.762Z,4.94
2022-12-06T01:49:12.876Z,5.11
2022-12-06T01:51:45.048Z,4.86
2022-12-06T01:54:14.894Z,5.09
2022-12-06T01:56:42.939Z,5.02
2022-12-06T01:59:12.668Z,4.97
2022-12-06T02:01:41.242Z,4.81
2022-12-06T02:04:09.755Z,4.74
2022-12-06T02:06:39.888Z,4.83
2022-12-06T02:09:11.863Z,4.82
2022-12-06T02:11:41.481Z,4.82
2022-12-06T02:14:13.533Z,4.70
2022-12-06T02:16:53.915Z,4.66
2022-12-06T02:19:42.974Z,4.70
2022-12-06T02:22:18.082Z,4.86
2022-12-06T02:25:07.522Z,4.81
2022-12-06T02:28:05.334Z,4.80
2022-12-06T02:30:43.319Z,4.55
2022-12-06T02:33:19.897Z,4.47
2022-12-06T02:35:51.807Z,4.51
2022-12-06T02:38:26.447Z,4.50
2022-12-06T02:40:58.442Z,4.43
2022-12-06T02:43:33.104Z,4.46
2022-12-06T02:46:04.971Z,4.52
2022-12-06T02:48:34.355Z,4.55
2022-12-06T02:51:05.486Z,4.40
2022-12-06T02:53:36.360Z,4.62
2022-12-06T02:56:04.391Z,4.60
2022-12-06T02:58:35.672Z,4.36
2022-12-06T03:01:07.766Z,4.58
2022-12-06T03:03:57.195Z,4.71
2022-12-06T03:06:45.036Z,4.52
2022-12-06T03:09:24.286Z,4.78
2022-12-06T03:11:58.809Z,4.77
2022-12-06T03:14:29.452Z,4.88
2022-12-06T03:17:08.226Z,4.61
2022-12-06T03:19:38.027Z,4.90
2022-12-06T03:22:09.539Z,4.58
2022-12-06T03:24:40.054Z,4.95
2022-12-06T03:27:12.136Z,5.01
2022-12-06T03:29:44.737Z,4.99
2022-12-06T03:32:17.950Z,4.97
2022-12-06T03:34:49.826Z,4.76
2022-12-06T03:37:22.557Z,4.61
2022-12-06T03:39:59.782Z,4.72
2022-12-06T03:42:28.498Z,4.58
2022-12-06T03:44:56.341Z,4.56
2022-12-06T03:47:34.949Z,4.57
2022-12-06T03:50:06.298Z,4.62
2022-12-06T03:52:34.779Z,4.63
2022-12-06T03:55:02.384Z,4.74
2022-12-06T03:57:29.974Z,4.85
2022-12-06T03:59:57.705Z,4.87
2022-12-06T04:02:26.834Z,4.91
2022-12-06T04:04:54.418Z,4.65
2022-12-06T04:07:21.966Z,4.50
2022-12-06T04:10:03.012Z,4.95
2022-12-06T04:12:49.633Z,4.98
2022-12-06T04:15:17.369Z,4.84
2022-12-06T04:18:04.433Z,4.86
2022-12-06T04:20:52.653Z,4.50
2022-12-06T04:23:19.993Z,4.34
2022-12-06T04:25:47.760Z,4.41
2022-12-06T04:28:33.466Z,4.36
2022-12-06T04:31:22.230Z,4.60
2022-12-06T04:34:09.543Z,4.49
2022-12-06T04:36:55.319Z,4.55
2022-12-06T04:39:23.190Z,4.43
2022-12-06T04:42:08.261Z,4.31
2022-12-06T04:44:36.029Z,4.33
2022-12-06T04:47:03.792Z,4.18
2022-12-06T04:49:33.132Z,4.27
2022-12-06T04:52:00.886Z,4.10
2022-12-06T04:54:30.065Z,4.41
2022-12-06T04:56:58.005Z,4.27
2022-12-06T04:59:26.000Z,4.27
2022-12-06T05:01:54.039Z,4.16
2022-12-06T05:04:22.803Z,4.25
2022-12-06T05:06:52.452Z,4.21
2022-12-06T05:09:20.221Z,4.15
2022-12-06T05:11:47.829Z,3.95
2022-12-06T05:14:15.454Z,4.01
2022-12-06T05:16:43.201Z,3.88
2022-12-06T05:19:11.347Z,3.90
2022-12-06T05:21:39.446Z,3.95
2022-12-06T05:24:09.233Z,4.00
2022-12-06T05:26:37.075Z,4.05
2022-12-06T05:29:05.116Z,3.84
2022-12-06T05:31:32.777Z,4.08
2022-12-06T05:34:00.408Z,4.00
2022-12-06T05:36:28.723Z,4.23
2022-12-06T05:38:57.559Z,4.27
2022-12-06T05:41:26.654Z,4.27
2022-12-06T05:43:54.246Z,4.09
2022-12-06T05:46:23.119Z,4.03
2022-12-06T05:48:50.860Z,4.08
2022-12-06T05:51:18.472Z,3.99
2022-12-06T05:53:46.015Z,3.98
2022-12-06T05:56:14.567Z,4.02
2022-12-06T05:58:44.187Z,4.16
2022-12-06T06:01:12.119Z,4.19
2022-12-06T06:03:46.948Z,4.12
2022-12-06T06:06:15.565Z,3.99
2022-12-06T06:08:43.658Z,3.89
2022-12-06T06:11:11.312Z,3.86
2022-12-06T06:13:39.158Z,3.79
2022-12-06T06:16:09.009Z,3.79
2022-12-06T06:18:36.897Z,3.79
2022-12-06T06:21:04.989Z,3.76
2022-12-06T06:23:33.040Z,3.72
2022-12-06T06:26:00.747Z,3.76
2022-12-06T06:28:28.342Z,3.72
2022-12-06T06:30:55.935Z,3.62
2022-12-06T06:33:24.861Z,3.70
2022-12-06T06:35:52.440Z,3.59
2022-12-06T06:38:20.029Z,3.70
2022-12-06T06:40:47.769Z,3.67
2022-12-06T06:43:24.471Z,3.65
2022-12-06T06:45:58.120Z,3.70
2022-12-06T06:48:28.442Z,3.72
2022-12-06T06:50:57.823Z,3.71
2022-12-06T06:53:27.310Z,3.68
2022-12-06T06:55:54.959Z,3.76
2022-12-06T06:58:22.511Z,3.69
2022-12-06T07:00:55.034Z,3.65
2022-12-06T07:03:23.671Z,3.78
2022-12-06T07:05:57.245Z,3.75
2022-12-06T07:08:25.924Z,3.77
2022-12-06T07:10:54.458Z,3.73
2022-12-06T07:13:23.191Z,3.81
2022-12-06T07:15:51.395Z,3.67
2022-12-06T07:18:19.804Z,3.63
2022-12-06T07:20:48.951Z,3.65
2022-12-06T07:23:17.907Z,3.64
2022-12-06T07:25:45.460Z,3.72
2022-12-06T07:28:13.273Z,3.70
2022-12-06T07:30:40.893Z,3.70
2022-12-06T07:33:08.629Z,3.90
2022-12-06T07:36:10.366Z,3.98
2022-12-06T07:38:25.303Z,3.91
2022-12-06T07:41:08.219Z,3.86
2022-12-06T07:43:53.689Z,3.86
2022-12-06T07:46:21.299Z,3.86
2022-12-06T07:48:48.954Z,3.83
2022-12-06T07:51:16.618Z,3.78
2022-12-06T07:53:45.524Z,3.72
2022-12-06T07:56:13.093Z,3.78
2022-12-06T07:58:40.650Z,3.83
2022-12-06T08:01:08.731Z,3.91
2022-12-06T08:03:36.456Z,3.86
2022-12-06T08:06:04.293Z,3.68
2022-12-06T08:08:32.773Z,3.80
2022-12-06T08:11:02.237Z,3.88
2022-12-06T08:13:30.546Z,3.75
2022-12-06T08:15:58.231Z,3.72
2022-12-06T08:18:26.618Z,3.79
2022-12-06T08:20:54.189Z,3.81
2022-12-06T08:23:21.750Z,3.90
2022-12-06T08:25:57.965Z,3.91
2022-12-06T08:28:27.262Z,3.98
2022-12-06T08:30:58.306Z,3.85
2022-12-06T08:33:30.534Z,3.85
2022-12-06T08:35:58.126Z,3.95
2022-12-06T08:38:25.843Z,3.89
2022-12-06T08:40:53.398Z,3.83
2022-12-06T08:43:20.996Z,3.91
2022-12-06T08:45:52.982Z,3.84
2022-12-06T08:48:21.315Z,3.93
2022-12-06T08:50:48.912Z,3.97
2022-12-06T08:53:16.581Z,4.08
2022-12-06T08:55:58.722Z,4.13
2022-12-06T08:58:29.854Z,4.14
2022-12-06T09:00:58.853Z,4.40
2022-12-06T09:03:26.552Z,4.37
2022-12-06T09:05:54.156Z,4.35
2022-12-06T09:08:21.795Z,4.45
2022-12-06T09:10:49.453Z,4.48
2022-12-06T09:13:17.050Z,4.40
2022-12-06T09:15:44.634Z,4.43
2022-12-06T09:18:13.569Z,4.53
2022-12-06T09:20:41.247Z,4.56
2022-12-06T09:23:09.928Z,4.60
2022-12-06T09:25:38.636Z,4.55
2022-12-06T09:28:06.544Z,4.39
2022-12-06T09:30:34.580Z,4.61
2022-12-06T09:33:02.191Z,4.52
2022-12-06T09:35:32.415Z,4.48
2022-12-06T09:38:00.933Z,4.55
2022-12-06T09:40:35.377Z,4.68
2022-12-06T09:43:21.442Z,4.66
2022-12-06T09:46:10.213Z,4.60
2022-12-06T09:49:05.346Z,4.67
2022-12-06T09:51:51.386Z,4.49
2022-12-06T09:54:35.255Z,4.59
2022-12-06T09:57:09.174Z,4.79
2022-12-06T09:59:46.088Z,4.79
2022-12-06T10:02:30.566Z,4.79
2022-12-06T10:05:09.507Z,4.83
2022-12-06T10:07:49.552Z,4.67
2022-12-06T10:10:25.805Z,4.71
2022-12-06T10:13:04.232Z,4.70
2022-12-06T10:15:45.737Z,4.76
2022-12-06T10:18:38.999Z,4.98
2022-12-06T10:21:17.431Z,5.07
2022-12-06T10:24:02.187Z,4.80
2022-12-06T10:26:36.026Z,5.00
2022-12-06T10:29:18.081Z,5.02
2022-12-06T10:31:56.089Z,5.16
2022-12-06T10:34:38.002Z,5.49
2022-12-06T10:37:16.047Z,5.32
2022-12-06T10:39:52.232Z,5.21
2022-12-06T10:42:31.524Z,5.03
2022-12-06T10:45:25.084Z,5.15
2022-12-06T10:47:54.616Z,5.27
2022-12-06T10:50:26.711Z,5.36
2022-12-06T10:53:02.275Z,5.03
2022-12-06T10:55:37.456Z,5.37
2022-12-06T10:58:15.244Z,5.76
2022-12-06T11:00:52.443Z,5.72
2022-12-06T11:03:26.450Z,5.59
2022-12-06T11:05:57.375Z,5.62
2022-12-06T11:08:29.551Z,5.60
2022-12-06T11:11:00.507Z,5.61
2022-12-06T11:13:36.261Z,5.78
2022-12-06T11:16:10.306Z,5.84
2022-12-06T11:18:38.611Z,5.84
2022-12-06T11:21:16.738Z,5.57
2022-12-06T11:23:53.192Z,5.61
2022-12-06T11:26:31.171Z,5.56
2022-12-06T11:29:05.740Z,5.65
2022-12-06T11:31:37.962Z,5.71
2022-12-06T11:34:10.342Z,5.72
2022-12-06T11:36:38.562Z,5.56
2022-12-06T11:39:06.354Z,5.57
2022-12-06T11:41:38.067Z,5.94
2022-12-06T11:44:06.811Z,5.89
2022-12-06T11:46:34.546Z,5.83
2022-12-06T11:49:15.006Z,5.85
2022-12-06T11:51:42.555Z,6.03
2022-12-06T11:54:24.369Z,6.06
2022-12-06T11:56:55.023Z,6.16
2022-12-06T11:59:25.891Z,6.01
2022-12-06T12:01:57.175Z,5.91
2022-12-06T12:04:44.118Z,5.86
2022-12-06T12:07:16.912Z,5.96
2022-12-06T12:09:54.350Z,5.96
2022-12-06T12:12:25.390Z,5.93
2022-12-06T12:14:57.998Z,5.94
2022-12-06T12:17:31.216Z,5.90
2022-12-06T12:20:01.754Z,5.92
2022-12-06T12:22:35.901Z,6.32
2022-12-06T12:25:22.556Z,6.20
2022-12-06T12:27:53.085Z,6.03
2022-12-06T12:30:33.529Z,6.41
2022-12-06T12:33:20.874Z,6.33
2022-12-06T12:35:51.142Z,6.21
2022-12-06T12:38:27.440Z,6.21
2022-12-06T12:40:57.997Z,5.95
2022-12-06T12:43:30.928Z,6.14
2022-12-06T12:46:13.976Z,6.34
2022-12-06T12:48:43.036Z,6.20
2022-12-06T12:51:28.334Z,6.39
2022-12-06T12:53:59.296Z,6.12
2022-12-06T12:56:27.185Z,6.12
2022-12-06T12:58:57.861Z,6.11
2022-12-06T13:01:41.943Z,5.68
2022-12-06T13:04:18.224Z,6.28
2022-12-06T13:06:50.731Z,6.55
2022-12-06T13:09:25.494Z,6.36
2022-12-06T13:11:58.304Z,6.12
2022-12-06T13:14:29.271Z,6.37
2022-12-06T13:17:00.337Z,6.15
2022-12-06T13:19:35.161Z,6.35
2022-12-06T13:22:05.875Z,6.33
2022-12-06T13:24:37.415Z,6.25
2022-12-06T13:27:11.917Z,6.45
2022-12-06T13:29:44.937Z,6.27
2022-12-06T13:32:17.261Z,6.01
2022-12-06T13:34:50.304Z,6.31
2022-12-06T13:37:35.635Z,6.42
2022-12-06T13:40:06.087Z,6.45
2022-12-06T13:42:47.411Z,6.54
2022-12-06T13:45:42.636Z,6.38
2022-12-06T13:48:37.553Z,6.38
2022-12-06T13:51:10.093Z,6.35
2022-12-06T13:54:16.335Z,6.23
2022-12-06T13:56:44.191Z,5.94
2022-12-06T13:59:34.408Z,6.07
2022-12-06T14:02:04.802Z,6.09
2022-12-06T14:07:04.477Z,6.07
2022-12-06T14:09:42.073Z,6.08
2022-12-06T14:12:17.589Z,6.02
2022-12-06T14:14:45.447Z,6.00
2022-12-06T14:17:38.014Z,5.96
2022-12-06T14:20:19.374Z,5.99
2022-12-06T14:22:48.593Z,6.00
2022-12-06T14:25:20.774Z,5.91
2022-12-06T14:27:50.585Z,5.95
2022-12-06T14:30:25.633Z,5.86
2022-12-06T14:32:56.985Z,5.91
2022-12-06T14:35:26.476Z,5.99
2022-12-06T14:37:57.230Z,6.00
2022-12-06T14:40:45.910Z,5.72
2022-12-06T14:43:17.158Z,5.88
2022-12-06T14:45:46.855Z,5.88
2022-12-06T14:48:16.748Z,5.82
2022-12-06T14:50:48.592Z,5.78
2022-12-06T14:53:28.915Z,5.86
2022-12-06T14:55:58.130Z,5.81
2022-12-06T14:58:28.568Z,5.79
2022-12-06T15:01:00.107Z,6.02
2022-12-06T15:03:32.513Z,5.79
2022-12-06T15:06:13.317Z,5.78
2022-12-06T15:08:42.546Z,5.83
2022-12-06T15:11:50.190Z,5.93
2022-12-06T15:14:19.924Z,5.99
2022-12-06T15:16:58.395Z,5.89
2022-12-06T15:19:28.833Z,5.78
2022-12-06T15:21:57.460Z,5.93
2022-12-06T15:24:27.237Z,5.79
2022-12-06T15:26:55.462Z,5.87
2022-12-06T15:29:23.527Z,5.72
2022-12-06T15:31:53.207Z,5.79
2022-12-06T15:34:28.860Z,5.66
2022-12-06T15:37:22.247Z,5.94
2022-12-06T15:39:45.853Z,5.77
2022-12-06T15:42:18.538Z,5.70
2022-12-06T15:44:49.420Z,5.46
2022-12-06T15:47:17.207Z,5.53
2022-12-06T15:49:46.365Z,5.60
2022-12-06T15:52:17.065Z,5.43
2022-12-06T15:54:44.837Z,5.53
2022-12-06T15:57:12.485Z,5.33
2022-12-06T15:59:40.100Z,5.40
2022-12-06T16:02:15.225Z,5.48
2022-12-06T16:04:43.175Z,5.58
2022-12-06T16:07:13.409Z,5.42
2022-12-06T16:09:42.188Z,5.33
2022-12-06T16:12:10.746Z,5.41
2022-12-06T16:14:38.281Z,5.50
2022-12-06T16:17:05.873Z,5.51
2022-12-06T16:19:47.348Z,5.49
2022-12-06T16:22:16.304Z,5.56
2022-12-06T16:24:42.921Z,5.46
2022-12-06T16:27:10.680Z,5.30
2022-12-06T16:29:39.351Z,5.38
2022-12-06T16:32:07.464Z,5.33
2022-12-06T16:34:36.156Z,5.22
2022-12-06T16:37:06.962Z,5.11
2022-12-06T16:39:36.162Z,5.32
2022-12-06T16:42:06.767Z,5.23
2022-12-06T16:44:50.677Z,5.14
2022-12-06T16:47:18.406Z,5.14
2022-12-06T16:49:48.048Z,5.22
2022-12-06T16:52:16.675Z,5.25
2022-12-06T16:54:46.843Z,5.16
2022-12-06T16:57:15.250Z,5.05
2022-12-06T16:59:43.416Z,5.01
2022-12-06T17:02:25.050Z,4.95
2022-12-06T17:04:52.628Z,4.91
2022-12-06T17:07:20.168Z,4.88
2022-12-06T17:09:49.170Z,4.84
2022-12-06T17:12:16.733Z,4.84
2022-12-06T17:14:44.727Z,4.82
2022-12-06T17:17:15.133Z,4.80
2022-12-06T17:19:43.397Z,4.73
2022-12-06T17:22:12.045Z,4.85
2022-12-06T17:24:40.033Z,4.78
2022-12-06T17:27:09.961Z,4.73
2022-12-06T17:29:38.283Z,4.72
2022-12-06T17:32:06.630Z,4.70
2022-12-06T17:34:34.328Z,4.65
2022-12-06T17:37:02.135Z,4.68
2022-12-06T17:39:29.721Z,4.67
2022-12-06T17:42:15.165Z,4.67
2022-12-06T17:44:44.102Z,4.71
2022-12-06T17:47:12.271Z,4.71
2022-12-06T17:49:39.848Z,4.75
2022-12-06T17:52:07.484Z,4.78
2022-12-06T17:54:35.207Z,4.76
2022-12-06T17:57:03.230Z,4.84
2022-12-06T17:59:32.881Z,4.72
2022-12-06T18:02:18.741Z,4.87
2022-12-06T18:04:47.730Z,4.86
2022-12-06T18:07:16.305Z,4.82
2022-12-06T18:09:43.923Z,4.76
2022-12-06T18:12:13.707Z,4.80
2022-12-06T18:14:41.398Z,4.88
2022-12-06T18:17:10.396Z,4.80
2022-12-06T18:19:37.994Z,4.84
2022-12-06T18:22:05.552Z,4.83
2022-12-06T18:24:35.869Z,4.53
2022-12-06T18:27:04.577Z,4.76
2022-12-06T18:29:32.288Z,4.84
2022-12-06T18:32:00.909Z,4.79
2022-12-06T18:34:30.048Z,4.80
2022-12-06T18:36:57.757Z,4.86
2022-12-06T18:39:25.437Z,4.84
2022-12-06T18:41:55.116Z,4.85
2022-12-06T18:44:23.487Z,4.87
2022-12-06T18:46:51.392Z,4.87
2022-12-06T18:49:19.214Z,4.84
2022-12-06T18:51:48.155Z,4.84
2022-12-06T18:54:15.724Z,4.81
2022-12-06T18:56:43.628Z,4.72
2022-12-06T18:59:12.228Z,4.76
2022-12-06T19:01:41.067Z,4.68
2022-12-06T19:04:11.380Z,4.69
2022-12-06T19:06:39.666Z,4.71
2022-12-06T19:09:10.293Z,4.69
2022-12-06T19:11:39.467Z,4.43
2022-12-06T19:14:08.290Z,4.49
2022-12-06T19:16:38.999Z,4.44
2022-12-06T19:19:15.558Z,4.78
2022-12-06T19:21:44.470Z,4.66
2022-12-06T19:24:15.702Z,4.62
2022-12-06T19:26:44.155Z,4.59
2022-12-06T19:29:12.000Z,4.57
2022-12-06T19:31:39.770Z,4.47
2022-12-06T19:34:07.893Z,4.42
2022-12-06T19:36:35.690Z,4.53
2022-12-06T19:39:06.013Z,4.54
2022-12-06T19:41:56.223Z,4.62
2022-12-06T19:44:23.443Z,4.63
2022-12-06T19:46:51.575Z,4.63
2022-12-06T19:49:21.434Z,4.34
2022-12-06T19:51:50.586Z,4.54
2022-12-06T19:54:20.969Z,4.57
2022-12-06T19:56:51.356Z,4.42
2022-12-06T19:59:19.533Z,4.41
2022-12-06T20:01:48.808Z,4.50
2022-12-06T20:04:18.506Z,4.47
2022-12-06T20:06:46.844Z,4.43
2022-12-06T20:09:15.170Z,4.45
2022-12-06T20:12:01.315Z,4.33
2022-12-06T20:14:33.592Z,4.37
2022-12-06T20:17:01.690Z,4.41
2022-12-06T20:19:29.608Z,4.48
2022-12-06T20:21:57.602Z,4.57
2022-12-06T20:24:25.558Z,4.45
2022-12-06T20:26:55.717Z,4.39
2022-12-06T20:29:23.897Z,4.36
2022-12-06T20:31:53.102Z,4.38
2022-12-06T20:34:20.988Z,4.38
2022-12-06T20:36:48.721Z,4.29
2022-12-06T20:39:21.518Z,4.32
2022-12-06T20:41:51.650Z,4.41
2022-12-06T20:44:19.936Z,4.41
2022-12-06T20:46:49.667Z,4.46
2022-12-06T20:49:19.070Z,4.37
2022-12-06T20:51:52.562Z,4.41
2022-12-06T20:54:22.174Z,4.36
2022-12-06T20:56:51.746Z,4.38
2022-12-06T20:59:20.359Z,4.42
2022-12-06T21:01:48.448Z,4.38
2022-12-06T21:04:18.217Z,4.37
2022-12-06T21:06:45.853Z,4.40
2022-12-06T21:09:13.454Z,4.40
2022-12-06T21:11:42.100Z,4.26
2022-12-06T21:14:12.292Z,4.30
2022-12-06T21:16:41.896Z,4.32
2022-12-06T21:19:12.656Z,4.18
2022-12-06T21:21:44.715Z,4.25
2022-12-06T21:24:16.056Z,4.18
2022-12-06T21:26:43.995Z,4.19
2022-12-06T21:29:15.772Z,4.21
2022-12-06T21:31:43.576Z,4.20
2022-12-06T21:34:11.431Z,4.13
2022-12-06T21:36:39.438Z,4.17
2022-12-06T21:39:08.626Z,4.13
2022-12-06T21:41:36.307Z,4.13
2022-12-06T21:44:03.956Z,4.06
2022-12-06T21:46:31.696Z,4.13
2022-12-06T21:49:01.975Z,4.14
2022-12-06T21:51:32.313Z,4.13
2022-12-06T21:54:00.224Z,4.11
2022-12-06T21:56:31.231Z,4.08
2022-12-06T21:59:01.011Z,4.14
2022-12-06T22:01:31.130Z,4.00
2022-12-06T22:04:02.045Z,4.14
2022-12-06T22:06:31.411Z,4.15
2022-12-06T22:09:01.321Z,4.17
2022-12-06T22:11:30.663Z,4.12
2022-12-06T22:13:59.044Z,4.11
2022-12-06T22:16:27.137Z,3.96
2022-12-06T22:18:55.329Z,4.05
2022-12-06T22:21:25.635Z,4.05
2022-12-06T22:23:54.213Z,3.89
2022-12-06T22:26:23.582Z,4.21
2022-12-06T22:28:52.525Z,4.36
2022-12-06T22:31:22.030Z,4.38
2022-12-06T22:33:50.729Z,4.42
2022-12-06T22:36:20.224Z,4.44
2022-12-06T22:38:49.588Z,4.20
2022-12-06T22:41:18.075Z,4.17
2022-12-06T22:43:46.212Z,4.26
2022-12-06T22:46:17.002Z,3.99
2022-12-06T22:48:44.931Z,3.85
2022-12-06T22:51:14.756Z,4.12
2022-12-06T22:53:43.948Z,4.15
2022-12-06T22:56:11.945Z,4.28
2022-12-06T22:58:40.904Z,4.02
2022-12-06T23:01:15.872Z,3.81
2022-12-06T23:03:47.373Z,4.49
2022-12-06T23:06:16.006Z,4.22
2022-12-06T23:08:44.110Z,4.36
2022-12-06T23:11:13.827Z,4.22
2022-12-06T23:13:42.404Z,4.35
2022-12-06T23:16:13.794Z,4.22
2022-12-06T23:18:41.784Z,4.28
2022-12-06T23:21:14.806Z,4.24
2022-12-06T23:23:45.704Z,4.12
2022-12-06T23:26:16.008Z,4.01
2022-12-06T23:28:45.335Z,3.93
2022-12-06T23:31:14.831Z,3.86
2022-12-06T23:33:43.621Z,3.93
2022-12-06T23:36:15.232Z,3.89
2022-12-06T23:38:43.383Z,3.86
2022-12-06T23:41:12.883Z,3.85
2022-12-06T23:43:41.408Z,3.88
2022-12-06T23:46:10.923Z,3.89
2022-12-06T23:48:38.977Z,3.87
2022-12-06T23:51:08.469Z,3.84
2022-12-06T23:53:37.858Z,3.79
2022-12-06T23:56:07.794Z,3.89
2022-12-06T23:58:36.350Z,4.01
